createdAt,value
2017-03-21T00:00:11.300Z,0
2017-03-21T00:00:51.888Z,0
2017-03-21T00:01:32.466Z,0
2017-03-21T00:02:13.048Z,0
2017-03-21T00:02:53.625Z,0
2017-03-21T00:03:34.196Z,0
2017-03-21T00:04:14.764Z,0
2017-03-21T00:04:55.359Z,0
2017-03-21T00:05:35.997Z,0
2017-03-21T00:06:16.561Z,0
2017-03-21T00:06:57.158Z,0
2017-03-21T00:07:37.723Z,0
2017-03-21T00:08:18.304Z,0
2017-03-21T00:08:58.873Z,0
2017-03-21T00:09:39.540Z,0
2017-03-21T00:10:20.104Z,0
2017-03-21T00:11:00.849Z,0
2017-03-21T00:11:41.515Z,0
2017-03-21T00:12:22.243Z,0
2017-03-21T00:13:02.895Z,0
2017-03-21T00:13:43.490Z,0
2017-03-21T00:14:24.078Z,0
2017-03-21T00:15:04.682Z,0
2017-03-21T00:15:45.273Z,0
2017-03-21T00:16:25.871Z,0
2017-03-21T00:17:06.469Z,0
2017-03-21T00:17:47.060Z,0
2017-03-21T00:18:27.661Z,0
2017-03-21T00:19:08.236Z,0
2017-03-21T00:19:48.811Z,0
2017-03-21T00:20:29.402Z,0
2017-03-21T00:21:10.010Z,0
2017-03-21T00:21:50.613Z,0
2017-03-21T00:22:31.221Z,0
2017-03-21T00:23:11.842Z,0
2017-03-21T00:23:52.426Z,0
2017-03-21T00:24:33.003Z,0
2017-03-21T00:25:13.592Z,0
2017-03-21T00:25:54.158Z,0
2017-03-21T00:26:34.759Z,0
2017-03-21T00:27:15.368Z,0
2017-03-21T00:27:55.963Z,0
2017-03-21T00:28:36.582Z,0
2017-03-21T00:29:17.262Z,0
2017-03-21T00:29:57.869Z,0
2017-03-21T00:30:38.435Z,0
2017-03-21T00:31:19.045Z,0
2017-03-21T00:31:59.616Z,0
2017-03-21T00:32:40.205Z,0
2017-03-21T00:33:20.823Z,0
2017-03-21T00:34:01.393Z,0
2017-03-21T00:34:41.978Z,0
2017-03-21T00:35:22.584Z,0
2017-03-21T00:36:03.204Z,0
2017-03-21T00:36:43.767Z,0
2017-03-21T00:37:24.423Z,0
2017-03-21T00:38:05.038Z,0
2017-03-21T00:38:45.641Z,0
2017-03-21T00:39:26.306Z,0
2017-03-21T00:40:06.888Z,0
2017-03-21T00:40:47.462Z,0
2017-03-21T00:41:28.074Z,0
2017-03-21T00:42:08.667Z,0
2017-03-21T00:42:49.260Z,0
2017-03-21T00:43:29.828Z,0
2017-03-21T00:44:10.425Z,0
2017-03-21T00:44:51.012Z,0
2017-03-21T00:45:31.594Z,0
2017-03-21T00:46:12.179Z,0
2017-03-21T00:46:52.759Z,0
2017-03-21T00:47:33.414Z,0
2017-03-21T00:48:13.977Z,0
2017-03-21T00:48:54.596Z,0
2017-03-21T00:49:35.175Z,0
2017-03-21T00:50:15.794Z,0
2017-03-21T00:50:56.485Z,0
2017-03-21T00:51:37.089Z,0
2017-03-21T00:52:17.674Z,0
2017-03-21T00:52:58.299Z,0
2017-03-21T00:53:38.892Z,0
2017-03-21T00:54:19.548Z,0
2017-03-21T00:55:00.141Z,0
2017-03-21T00:55:40.715Z,0
2017-03-21T00:56:21.292Z,0
2017-03-21T00:57:01.877Z,0
2017-03-21T00:57:42.548Z,0
2017-03-21T00:58:23.127Z,0
2017-03-21T00:59:03.716Z,0
2017-03-21T00:59:44.298Z,0
2017-03-21T01:00:24.896Z,0
2017-03-21T01:01:06.291Z,0
2017-03-21T01:01:46.864Z,0
2017-03-21T01:02:27.464Z,0
2017-03-21T01:03:08.033Z,0
2017-03-21T01:03:48.601Z,0
2017-03-21T01:04:29.187Z,0
2017-03-21T01:05:09.759Z,0
2017-03-21T01:05:50.341Z,0
2017-03-21T01:06:30.922Z,0
2017-03-21T01:07:11.511Z,0
2017-03-21T01:07:52.101Z,0
2017-03-21T01:08:32.684Z,0
2017-03-21T01:09:13.303Z,0
2017-03-21T01:09:53.918Z,0
2017-03-21T01:10:34.508Z,0
2017-03-21T01:11:15.258Z,0
2017-03-21T01:11:55.894Z,0
2017-03-21T01:12:36.440Z,0
2017-03-21T01:13:17.006Z,0
2017-03-21T01:13:57.576Z,0
2017-03-21T01:14:38.201Z,0
2017-03-21T01:15:18.808Z,0
2017-03-21T01:15:59.410Z,0
2017-03-21T01:16:40.003Z,0
2017-03-21T01:17:20.649Z,0
2017-03-21T01:18:01.189Z,0
2017-03-21T01:18:41.759Z,0
2017-03-21T01:19:22.336Z,0
2017-03-21T01:20:02.931Z,0
2017-03-21T01:20:43.514Z,0
2017-03-21T01:21:24.090Z,0
2017-03-21T01:22:04.660Z,0
2017-03-21T01:22:45.241Z,0
2017-03-21T01:23:25.825Z,0
2017-03-21T01:24:06.411Z,0
2017-03-21T01:24:47.003Z,0
2017-03-21T01:25:27.630Z,0
2017-03-21T01:26:08.219Z,0
2017-03-21T01:26:48.819Z,0
2017-03-21T01:27:29.391Z,0
2017-03-21T01:28:09.960Z,0
2017-03-21T01:28:50.529Z,0
2017-03-21T01:29:31.158Z,0
2017-03-21T01:30:11.698Z,0
2017-03-21T01:30:52.268Z,0
2017-03-21T01:31:32.867Z,0
2017-03-21T01:32:13.459Z,0
2017-03-21T01:32:54.034Z,0
2017-03-21T01:33:34.620Z,0
2017-03-21T01:34:15.203Z,0
2017-03-21T01:34:55.792Z,0
2017-03-21T01:35:36.387Z,0
2017-03-21T01:36:16.974Z,0
2017-03-21T01:36:57.563Z,0
2017-03-21T01:37:38.105Z,0
2017-03-21T01:38:18.689Z,0
2017-03-21T01:38:59.291Z,0
2017-03-21T01:39:39.870Z,0
2017-03-21T01:40:20.459Z,0
2017-03-21T01:41:01.061Z,0
2017-03-21T01:41:41.636Z,0
2017-03-21T01:42:22.210Z,0
2017-03-21T01:43:02.804Z,0
2017-03-21T01:43:43.391Z,0
2017-03-21T01:44:23.958Z,0
2017-03-21T01:45:04.579Z,0
2017-03-21T01:45:45.176Z,0
2017-03-21T01:46:25.793Z,0
2017-03-21T01:47:06.370Z,0
2017-03-21T01:47:46.965Z,0
2017-03-21T01:48:27.543Z,0
2017-03-21T01:49:08.182Z,0
2017-03-21T01:49:48.762Z,0
2017-03-21T01:50:29.342Z,0
2017-03-21T01:51:09.925Z,0
2017-03-21T01:51:50.529Z,0
2017-03-21T01:52:31.133Z,0
2017-03-21T01:53:11.721Z,0
2017-03-21T01:53:52.295Z,0
2017-03-21T01:54:32.865Z,0
2017-03-21T01:55:13.492Z,0
2017-03-21T01:55:54.109Z,0
2017-03-21T01:56:34.690Z,0
2017-03-21T01:57:15.344Z,0
2017-03-21T01:57:55.934Z,0
2017-03-21T01:58:36.516Z,0
2017-03-21T01:59:17.554Z,0
2017-03-21T01:59:58.165Z,0
2017-03-21T02:00:38.836Z,0
2017-03-21T02:01:19.410Z,0
2017-03-21T02:01:59.990Z,0
2017-03-21T02:02:40.580Z,0
2017-03-21T02:03:21.141Z,0
2017-03-21T02:04:01.717Z,0
2017-03-21T02:04:42.329Z,0
2017-03-21T02:05:22.905Z,0
2017-03-21T02:06:03.495Z,0
2017-03-21T02:06:44.091Z,0
2017-03-21T02:07:24.671Z,0
2017-03-21T02:08:05.244Z,0
2017-03-21T02:08:45.829Z,0
2017-03-21T02:09:26.416Z,0
2017-03-21T02:10:07.004Z,0
2017-03-21T02:10:47.590Z,0
2017-03-21T02:11:28.157Z,0
2017-03-21T02:12:08.771Z,0
2017-03-21T02:12:49.369Z,0
2017-03-21T02:13:29.985Z,0
2017-03-21T02:14:10.523Z,0
2017-03-21T02:14:51.120Z,0
2017-03-21T02:15:31.739Z,0
2017-03-21T02:16:12.286Z,0
2017-03-21T02:16:52.862Z,0
2017-03-21T02:17:33.436Z,0
2017-03-21T02:18:14.032Z,0
2017-03-21T02:18:54.609Z,0
2017-03-21T02:19:35.189Z,0
2017-03-21T02:20:15.782Z,0
2017-03-21T02:20:56.372Z,0
2017-03-21T02:21:36.950Z,0
2017-03-21T02:22:17.550Z,0
2017-03-21T02:22:58.154Z,0
2017-03-21T02:23:38.807Z,0
2017-03-21T02:24:19.413Z,0
2017-03-21T02:25:00.006Z,0
2017-03-21T02:25:40.581Z,0
2017-03-21T02:26:21.175Z,0
2017-03-21T02:27:01.767Z,0
2017-03-21T02:27:42.351Z,0
2017-03-21T02:28:22.926Z,0
2017-03-21T02:29:03.512Z,0
2017-03-21T02:29:44.105Z,0
2017-03-21T02:30:24.678Z,0
2017-03-21T02:31:05.303Z,0
2017-03-21T02:31:45.955Z,0
2017-03-21T02:32:26.534Z,0
2017-03-21T02:33:07.137Z,0
2017-03-21T02:33:47.713Z,0
2017-03-21T02:34:28.328Z,0
2017-03-21T02:35:08.890Z,0
2017-03-21T02:35:49.467Z,0
2017-03-21T02:36:30.060Z,0
2017-03-21T02:37:10.766Z,0
2017-03-21T02:37:51.343Z,0
2017-03-21T02:38:31.915Z,0
2017-03-21T02:39:12.539Z,0
2017-03-21T02:39:53.170Z,0
2017-03-21T02:40:33.714Z,0
2017-03-21T02:41:14.293Z,0
2017-03-21T02:41:54.886Z,0
2017-03-21T02:42:35.476Z,0
2017-03-21T02:43:16.075Z,0
2017-03-21T02:43:56.668Z,0
2017-03-21T02:44:37.228Z,0
2017-03-21T02:45:17.827Z,0
2017-03-21T02:45:58.408Z,0
2017-03-21T02:46:38.995Z,0
2017-03-21T02:47:19.586Z,0
2017-03-21T02:48:00.215Z,0
2017-03-21T02:48:40.803Z,0
2017-03-21T02:49:21.384Z,0
2017-03-21T02:50:01.967Z,0
2017-03-21T02:50:42.548Z,0
2017-03-21T02:51:23.155Z,0
2017-03-21T02:52:03.744Z,0
2017-03-21T02:52:44.358Z,0
2017-03-21T02:53:24.964Z,0
2017-03-21T02:54:05.571Z,0
2017-03-21T02:54:46.166Z,0
2017-03-21T02:55:26.774Z,0
2017-03-21T02:56:07.343Z,0
2017-03-21T02:56:47.959Z,0
2017-03-21T02:57:28.535Z,0
2017-03-21T02:58:09.140Z,0
2017-03-21T02:58:49.737Z,0
2017-03-21T02:59:30.313Z,0
2017-03-21T03:00:10.895Z,0
2017-03-21T03:00:51.534Z,0
2017-03-21T03:01:32.147Z,0
2017-03-21T03:02:12.761Z,0
2017-03-21T03:02:53.349Z,0
2017-03-21T03:03:33.943Z,0
2017-03-21T03:04:14.613Z,0
2017-03-21T03:04:55.186Z,0
2017-03-21T03:05:35.783Z,0
2017-03-21T03:06:16.404Z,0
2017-03-21T03:06:57.003Z,0
2017-03-21T03:07:37.618Z,0
2017-03-21T03:08:18.229Z,0
2017-03-21T03:08:58.828Z,0
2017-03-21T03:09:39.375Z,0
2017-03-21T03:10:19.967Z,0
2017-03-21T03:11:00.573Z,0
2017-03-21T03:11:41.155Z,0
2017-03-21T03:12:21.751Z,0
2017-03-21T03:13:02.349Z,0
2017-03-21T03:13:42.938Z,0
2017-03-21T03:14:23.558Z,0
2017-03-21T03:15:04.129Z,0
2017-03-21T03:15:44.712Z,0
2017-03-21T03:16:25.348Z,0
2017-03-21T03:17:05.930Z,0
2017-03-21T03:17:46.524Z,0
2017-03-21T03:18:27.172Z,0
2017-03-21T03:19:07.734Z,0
2017-03-21T03:19:48.343Z,0
2017-03-21T03:20:28.908Z,0
2017-03-21T03:21:09.499Z,0
2017-03-21T03:21:50.135Z,0
2017-03-21T03:22:30.732Z,0
2017-03-21T03:23:11.316Z,0
2017-03-21T03:23:51.925Z,0
2017-03-21T03:24:32.498Z,0
2017-03-21T03:25:13.109Z,0
2017-03-21T03:25:53.687Z,0
2017-03-21T03:26:34.300Z,0
2017-03-21T03:27:14.885Z,0
2017-03-21T03:27:55.470Z,0
2017-03-21T03:28:36.085Z,0
2017-03-21T03:29:16.680Z,0
2017-03-21T03:29:57.252Z,0
2017-03-21T03:30:37.845Z,0
2017-03-21T03:31:18.452Z,0
2017-03-21T03:31:59.016Z,0
2017-03-21T03:32:39.599Z,0
2017-03-21T03:33:20.165Z,0
2017-03-21T03:34:00.738Z,0
2017-03-21T03:34:41.317Z,0
2017-03-21T03:35:21.910Z,0
2017-03-21T03:36:02.533Z,0
2017-03-21T03:36:43.142Z,0
2017-03-21T03:37:23.720Z,0
2017-03-21T03:38:04.295Z,0
2017-03-21T03:38:44.871Z,0
2017-03-21T03:39:25.463Z,0
2017-03-21T03:40:06.055Z,0
2017-03-21T03:40:46.713Z,0
2017-03-21T03:41:27.303Z,0
2017-03-21T03:42:07.894Z,0
2017-03-21T03:42:48.478Z,0
2017-03-21T03:43:29.093Z,0
2017-03-21T03:44:09.631Z,0
2017-03-21T03:44:50.223Z,0
2017-03-21T03:45:30.802Z,0
2017-03-21T03:46:11.380Z,0
2017-03-21T03:46:51.946Z,0
2017-03-21T03:47:32.522Z,0
2017-03-21T03:48:13.114Z,0
2017-03-21T03:48:53.703Z,0
2017-03-21T03:49:34.303Z,0
2017-03-21T03:50:14.885Z,0
2017-03-21T03:50:55.486Z,0
2017-03-21T03:51:36.067Z,0
2017-03-21T03:52:16.647Z,0
2017-03-21T03:52:57.214Z,0
2017-03-21T03:53:37.814Z,0
2017-03-21T03:54:18.397Z,0
2017-03-21T03:54:58.985Z,0
2017-03-21T03:55:39.548Z,0
2017-03-21T03:56:20.133Z,0
2017-03-21T03:57:00.725Z,0
2017-03-21T03:57:41.316Z,0
2017-03-21T03:58:21.897Z,0
2017-03-21T03:59:02.527Z,0
2017-03-21T03:59:43.091Z,0
2017-03-21T04:00:23.711Z,0
2017-03-21T04:01:04.340Z,0
2017-03-21T04:01:44.922Z,0
2017-03-21T04:02:25.511Z,0
2017-03-21T04:03:06.105Z,0
2017-03-21T04:03:46.722Z,0
2017-03-21T04:04:27.330Z,0
2017-03-21T04:05:07.948Z,0
2017-03-21T04:05:48.536Z,0
2017-03-21T04:06:29.131Z,0
2017-03-21T04:07:09.715Z,0
2017-03-21T04:07:50.368Z,0
2017-03-21T04:08:30.940Z,0
2017-03-21T04:09:11.534Z,0
2017-03-21T04:09:52.106Z,0
2017-03-21T04:10:32.696Z,0
2017-03-21T04:11:13.321Z,0
2017-03-21T04:11:53.922Z,0
2017-03-21T04:12:34.545Z,0
2017-03-21T04:13:15.148Z,0
2017-03-21T04:13:55.715Z,0
2017-03-21T04:14:36.291Z,0
2017-03-21T04:15:16.923Z,0
2017-03-21T04:15:57.484Z,0
2017-03-21T04:16:38.064Z,0
2017-03-21T04:17:18.641Z,0
2017-03-21T04:17:59.229Z,0
2017-03-21T04:18:39.800Z,0
2017-03-21T04:19:20.387Z,0
2017-03-21T04:20:00.963Z,0
2017-03-21T04:20:41.552Z,0
2017-03-21T04:21:22.160Z,0
2017-03-21T04:22:02.774Z,0
2017-03-21T04:22:43.375Z,0
2017-03-21T04:23:23.966Z,0
2017-03-21T04:24:04.582Z,0
2017-03-21T04:24:45.202Z,0
2017-03-21T04:25:25.785Z,0
2017-03-21T04:26:06.381Z,0
2017-03-21T04:26:46.972Z,0
2017-03-21T04:27:27.596Z,0
2017-03-21T04:28:08.203Z,0
2017-03-21T04:28:48.783Z,0
2017-03-21T04:29:29.378Z,0
2017-03-21T04:30:09.965Z,0
2017-03-21T04:30:50.548Z,0
2017-03-21T04:31:31.152Z,0
2017-03-21T04:32:11.739Z,0
2017-03-21T04:32:52.326Z,0
2017-03-21T04:33:32.923Z,0
2017-03-21T04:34:13.540Z,0
2017-03-21T04:34:54.111Z,0
2017-03-21T04:35:34.704Z,0
2017-03-21T04:36:15.341Z,0
2017-03-21T04:36:55.944Z,0
2017-03-21T04:37:36.509Z,0
2017-03-21T04:38:17.140Z,0
2017-03-21T04:38:57.676Z,0
2017-03-21T04:39:38.269Z,0
2017-03-21T04:40:18.870Z,0
2017-03-21T04:40:59.517Z,0
2017-03-21T04:41:40.086Z,0
2017-03-21T04:42:20.638Z,0
2017-03-21T04:43:01.259Z,0
2017-03-21T04:43:41.888Z,0
2017-03-21T04:44:22.455Z,4
2017-03-21T04:45:03.107Z,4
2017-03-21T04:45:43.643Z,4
2017-03-21T04:46:24.263Z,4
2017-03-21T04:47:04.859Z,4
2017-03-21T04:47:45.423Z,0
2017-03-21T04:48:26.000Z,4
2017-03-21T04:49:06.593Z,4
2017-03-21T04:49:47.186Z,4
2017-03-21T04:50:27.762Z,4
2017-03-21T04:51:08.377Z,8
2017-03-21T04:51:48.960Z,8
2017-03-21T04:52:29.549Z,8
2017-03-21T04:53:10.176Z,8
2017-03-21T04:53:50.732Z,16
2017-03-21T04:54:31.301Z,16
2017-03-21T04:55:11.893Z,20
2017-03-21T04:55:52.475Z,24
2017-03-21T04:56:33.078Z,24
2017-03-21T04:57:13.689Z,28
2017-03-21T04:57:54.257Z,28
2017-03-21T04:58:34.862Z,28
2017-03-21T04:59:15.458Z,28
2017-03-21T04:59:56.040Z,32
2017-03-21T05:00:36.653Z,32
2017-03-21T05:01:17.252Z,32
2017-03-21T05:01:57.871Z,36
2017-03-21T05:02:38.443Z,40
2017-03-21T05:03:19.030Z,44
2017-03-21T05:03:59.595Z,52
2017-03-21T05:04:40.180Z,52
2017-03-21T05:05:20.756Z,48
2017-03-21T05:06:01.337Z,44
2017-03-21T05:06:41.930Z,44
2017-03-21T05:07:22.506Z,36
2017-03-21T05:08:03.094Z,40
2017-03-21T05:08:43.697Z,40
2017-03-21T05:09:24.283Z,40
2017-03-21T05:10:04.863Z,44
2017-03-21T05:10:45.446Z,44
2017-03-21T05:11:26.061Z,48
2017-03-21T05:12:06.716Z,52
2017-03-21T05:12:47.316Z,60
2017-03-21T05:13:27.923Z,60
2017-03-21T05:14:08.531Z,64
2017-03-21T05:14:49.106Z,72
2017-03-21T05:15:29.761Z,76
2017-03-21T05:16:10.358Z,80
2017-03-21T05:16:50.947Z,80
2017-03-21T05:17:31.533Z,84
2017-03-21T05:18:12.115Z,92
2017-03-21T05:18:52.726Z,116
2017-03-21T05:19:33.317Z,148
2017-03-21T05:20:13.967Z,180
2017-03-21T05:20:54.624Z,216
2017-03-21T05:21:35.237Z,252
2017-03-21T05:22:15.840Z,296
2017-03-21T05:22:56.444Z,348
2017-03-21T05:23:37.020Z,356
2017-03-21T05:24:17.598Z,348
2017-03-21T05:24:58.156Z,340
2017-03-21T05:25:38.731Z,316
2017-03-21T05:26:19.295Z,292
2017-03-21T05:26:59.910Z,288
2017-03-21T05:27:40.493Z,288
2017-03-21T05:28:21.091Z,312
2017-03-21T05:29:01.758Z,296
2017-03-21T05:29:42.394Z,276
2017-03-21T05:30:23.067Z,260
2017-03-21T05:31:03.715Z,228
2017-03-21T05:31:44.354Z,196
2017-03-21T05:32:24.930Z,172
2017-03-21T05:33:05.554Z,184
2017-03-21T05:33:46.113Z,204
2017-03-21T05:34:26.750Z,208
2017-03-21T05:35:07.372Z,212
2017-03-21T05:35:47.998Z,192
2017-03-21T05:36:28.579Z,200
2017-03-21T05:37:09.200Z,208
2017-03-21T05:37:49.839Z,208
2017-03-21T05:38:30.445Z,208
2017-03-21T05:39:11.030Z,220
2017-03-21T05:39:51.622Z,248
2017-03-21T05:40:32.218Z,268
2017-03-21T05:41:12.799Z,264
2017-03-21T05:41:53.400Z,260
2017-03-21T05:42:33.980Z,244
2017-03-21T05:43:14.572Z,252
2017-03-21T05:43:55.180Z,260
2017-03-21T05:44:35.712Z,264
2017-03-21T05:45:16.283Z,272
2017-03-21T05:45:56.899Z,288
2017-03-21T05:46:37.497Z,320
2017-03-21T05:47:18.112Z,388
2017-03-21T05:47:58.694Z,428
2017-03-21T05:48:39.307Z,432
2017-03-21T05:49:19.894Z,420
2017-03-21T05:50:00.507Z,372
2017-03-21T05:50:41.100Z,308
2017-03-21T05:51:21.705Z,268
2017-03-21T05:52:02.302Z,244
2017-03-21T05:52:42.916Z,240
2017-03-21T05:53:23.523Z,244
2017-03-21T05:54:04.070Z,264
2017-03-21T05:54:44.670Z,296
2017-03-21T05:55:25.351Z,316
2017-03-21T05:56:06.000Z,332
2017-03-21T05:56:46.589Z,368
2017-03-21T05:57:27.355Z,404
2017-03-21T05:58:08.140Z,428
2017-03-21T05:58:48.897Z,452
2017-03-21T05:59:29.573Z,468
2017-03-21T06:00:10.341Z,472
2017-03-21T06:00:51.066Z,496
2017-03-21T06:01:31.894Z,516
2017-03-21T06:02:12.765Z,520
2017-03-21T06:02:53.641Z,548
2017-03-21T06:03:34.401Z,536
2017-03-21T06:04:15.261Z,548
2017-03-21T06:04:56.055Z,584
2017-03-21T06:05:36.895Z,700
2017-03-21T06:06:17.508Z,804
2017-03-21T06:06:58.298Z,836
2017-03-21T06:07:39.044Z,848
2017-03-21T06:08:19.875Z,836
2017-03-21T06:09:00.686Z,872
2017-03-21T06:09:41.508Z,816
2017-03-21T06:10:22.139Z,916
2017-03-21T06:11:02.913Z,852
2017-03-21T06:11:43.686Z,788
2017-03-21T06:12:24.561Z,852
2017-03-21T06:13:05.362Z,1044
2017-03-21T06:13:46.048Z,1400
2017-03-21T06:14:26.793Z,1680
2017-03-21T06:15:07.641Z,1696
2017-03-21T06:15:48.387Z,1524
2017-03-21T06:16:29.046Z,1400
2017-03-21T06:17:09.898Z,1252
2017-03-21T06:17:50.688Z,1180
2017-03-21T06:18:31.705Z,1204
2017-03-21T06:19:12.297Z,1248
2017-03-21T06:19:52.989Z,1408
2017-03-21T06:20:33.698Z,1668
2017-03-21T06:21:14.478Z,1956
2017-03-21T06:21:55.345Z,2068
2017-03-21T06:22:36.011Z,2108
2017-03-21T06:23:16.697Z,2620
2017-03-21T06:23:57.388Z,3568
2017-03-21T06:24:38.080Z,4068
2017-03-21T06:25:18.780Z,4292
2017-03-21T06:25:59.496Z,4304
2017-03-21T06:26:40.125Z,4368
2017-03-21T06:27:20.818Z,4412
2017-03-21T06:28:01.605Z,4584
2017-03-21T06:28:42.269Z,4904
2017-03-21T06:29:22.919Z,5224
2017-03-21T06:30:03.711Z,5556
2017-03-21T06:30:46.188Z,5696
2017-03-21T06:31:43.430Z,5288
2017-03-21T06:32:24.821Z,4308
2017-03-21T06:33:05.631Z,3436
2017-03-21T06:33:46.345Z,2752
2017-03-21T06:34:27.271Z,2552
2017-03-21T06:35:08.080Z,2784
2017-03-21T06:35:48.815Z,3012
2017-03-21T06:36:29.593Z,3436
2017-03-21T06:37:10.329Z,3844
2017-03-21T06:37:51.035Z,4740
2017-03-21T06:38:31.940Z,5524
2017-03-21T06:39:12.704Z,6092
2017-03-21T06:39:53.462Z,6844
2017-03-21T06:40:34.141Z,7360
2017-03-21T06:41:14.811Z,7744
2017-03-21T06:41:55.564Z,7848
2017-03-21T06:42:36.218Z,7556
2017-03-21T06:43:17.029Z,6056
2017-03-21T06:43:57.805Z,4432
2017-03-21T06:44:38.614Z,3580
2017-03-21T06:45:19.684Z,2772
2017-03-21T06:46:00.557Z,2588
2017-03-21T06:46:41.420Z,2344
2017-03-21T06:47:22.092Z,2524
2017-03-21T06:48:02.838Z,2384
2017-03-21T06:48:43.524Z,2236
2017-03-21T06:49:24.179Z,2324
2017-03-21T06:50:04.959Z,2372
2017-03-21T06:50:45.732Z,2304
2017-03-21T06:51:26.495Z,2256
2017-03-21T06:52:07.178Z,1984
2017-03-21T06:52:47.972Z,1572
2017-03-21T06:53:28.759Z,1392
2017-03-21T06:54:09.442Z,1604
2017-03-21T06:54:50.078Z,1800
2017-03-21T06:55:30.763Z,1924
2017-03-21T06:56:11.661Z,1744
2017-03-21T06:56:52.368Z,1336
2017-03-21T06:57:33.180Z,980
2017-03-21T06:58:14.063Z,768
2017-03-21T06:58:54.850Z,616
2017-03-21T06:59:35.625Z,504
2017-03-21T07:00:16.382Z,444
2017-03-21T07:00:57.188Z,408
2017-03-21T07:01:37.967Z,364
2017-03-21T07:02:18.592Z,328
2017-03-21T07:02:59.339Z,308
2017-03-21T07:03:40.163Z,308
2017-03-21T07:04:22.299Z,308
2017-03-21T07:05:02.985Z,304
2017-03-21T07:05:43.835Z,296
2017-03-21T07:06:24.507Z,296
2017-03-21T07:07:05.238Z,304
2017-03-21T07:07:45.922Z,292
2017-03-21T07:08:26.595Z,280
2017-03-21T07:09:07.227Z,292
2017-03-21T07:09:47.984Z,304
2017-03-21T07:10:28.758Z,332
2017-03-21T07:11:09.393Z,336
2017-03-21T07:11:50.502Z,384
2017-03-21T07:12:31.221Z,412
2017-03-21T07:13:11.840Z,400
2017-03-21T07:13:52.748Z,356
2017-03-21T07:14:33.376Z,356
2017-03-21T07:15:14.160Z,352
2017-03-21T07:15:54.940Z,348
2017-03-21T07:16:35.589Z,332
2017-03-21T07:17:16.334Z,344
2017-03-21T07:17:57.176Z,348
2017-03-21T07:18:37.918Z,344
2017-03-21T07:19:18.707Z,348
2017-03-21T07:19:59.402Z,372
2017-03-21T07:20:40.333Z,356
2017-03-21T07:21:21.072Z,348
2017-03-21T07:22:01.842Z,356
2017-03-21T07:22:42.609Z,372
2017-03-21T07:23:23.499Z,400
2017-03-21T07:24:04.307Z,456
2017-03-21T07:24:44.991Z,524
2017-03-21T07:25:25.661Z,560
2017-03-21T07:26:06.435Z,612
2017-03-21T07:26:47.179Z,680
2017-03-21T07:27:27.880Z,760
2017-03-21T07:28:08.584Z,828
2017-03-21T07:28:49.292Z,876
2017-03-21T07:29:29.944Z,944
2017-03-21T07:30:10.589Z,992
2017-03-21T07:30:51.382Z,1056
2017-03-21T07:31:32.125Z,1144
2017-03-21T07:32:12.872Z,1248
2017-03-21T07:32:53.590Z,1368
2017-03-21T07:33:34.425Z,1448
2017-03-21T07:34:15.036Z,1432
2017-03-21T07:34:55.821Z,1396
2017-03-21T07:35:36.607Z,1440
2017-03-21T07:36:17.295Z,1504
2017-03-21T07:36:57.968Z,1552
2017-03-21T07:37:38.626Z,1560
2017-03-21T07:38:19.530Z,1576
2017-03-21T07:39:00.218Z,1548
2017-03-21T07:39:40.983Z,1508
2017-03-21T07:40:21.758Z,1484
2017-03-21T07:41:02.507Z,1448
2017-03-21T07:41:45.014Z,1412
2017-03-21T07:42:28.262Z,1364
2017-03-21T07:43:11.017Z,1352
2017-03-21T07:43:55.358Z,1376
2017-03-21T07:44:38.999Z,1428
2017-03-21T07:45:22.863Z,1468
2017-03-21T07:46:06.662Z,1456
2017-03-21T07:46:47.373Z,1492
2017-03-21T07:47:28.061Z,1452
2017-03-21T07:48:08.836Z,1420
2017-03-21T07:48:49.771Z,1372
2017-03-21T07:49:30.534Z,1368
2017-03-21T07:50:11.290Z,1384
2017-03-21T07:50:52.111Z,1352
2017-03-21T07:51:32.925Z,1260
2017-03-21T07:52:13.730Z,1156
2017-03-21T07:52:54.491Z,1096
2017-03-21T07:53:35.217Z,1104
2017-03-21T07:54:16.034Z,1048
2017-03-21T07:54:56.847Z,1012
2017-03-21T07:55:37.599Z,1052
2017-03-21T07:56:18.389Z,1184
2017-03-21T07:56:59.212Z,1344
2017-03-21T07:57:39.957Z,1500
2017-03-21T07:58:20.722Z,1704
2017-03-21T07:59:01.563Z,2020
2017-03-21T07:59:42.409Z,2580
2017-03-21T08:00:23.166Z,3392
2017-03-21T08:01:03.848Z,5228
2017-03-21T08:01:44.574Z,12448
2017-03-21T08:02:25.378Z,21760
2017-03-21T08:03:06.029Z,21440
2017-03-21T08:03:46.821Z,21504
2017-03-21T08:04:27.625Z,21408
2017-03-21T08:05:08.392Z,24416
2017-03-21T08:05:49.096Z,23008
2017-03-21T08:06:29.921Z,20096
2017-03-21T08:07:10.605Z,16864
2017-03-21T08:07:51.469Z,21152
2017-03-21T08:08:32.224Z,19168
2017-03-21T08:09:12.969Z,22240
2017-03-21T08:09:53.630Z,22592
2017-03-21T08:10:34.493Z,20960
2017-03-21T08:11:15.345Z,22080
2017-03-21T08:11:56.062Z,11328
2017-03-21T08:12:36.737Z,8680
2017-03-21T08:13:17.503Z,7780
2017-03-21T08:13:58.258Z,7264
2017-03-21T08:14:39.035Z,14472
2017-03-21T08:15:19.714Z,13688
2017-03-21T08:16:00.469Z,21344
2017-03-21T08:16:41.259Z,28160
2017-03-21T08:17:22.015Z,32640
2017-03-21T08:18:02.774Z,28352
2017-03-21T08:18:43.556Z,37984
2017-03-21T08:19:24.300Z,26368
2017-03-21T08:20:05.000Z,44608
2017-03-21T08:20:45.705Z,44928
2017-03-21T08:21:26.428Z,43616
2017-03-21T08:22:07.217Z,51104
2017-03-21T08:22:47.979Z,35232
2017-03-21T08:23:28.913Z,30048
2017-03-21T08:24:09.534Z,21248
2017-03-21T08:24:50.393Z,20352
2017-03-21T08:25:31.111Z,21408
2017-03-21T08:26:12.020Z,22400
2017-03-21T08:26:52.658Z,14688
2017-03-21T08:27:33.264Z,21888
2017-03-21T08:28:14.046Z,13028
2017-03-21T08:28:54.742Z,13816
2017-03-21T08:29:35.456Z,16320
2017-03-21T08:30:16.244Z,22688
2017-03-21T08:30:57.109Z,17728
2017-03-21T08:31:37.964Z,16204
2017-03-21T08:32:18.779Z,17184
2017-03-21T08:32:59.485Z,18368
2017-03-21T08:33:40.232Z,26688
2017-03-21T08:34:20.914Z,24448
2017-03-21T08:35:01.649Z,23520
2017-03-21T08:35:42.433Z,22208
2017-03-21T08:36:23.295Z,17568
2017-03-21T08:37:04.023Z,22144
2017-03-21T08:37:44.816Z,21728
2017-03-21T08:38:25.519Z,21152
2017-03-21T08:39:06.338Z,19552
2017-03-21T08:39:47.210Z,18016
2017-03-21T08:40:27.922Z,18304
2017-03-21T08:41:08.805Z,15936
2017-03-21T08:41:49.554Z,16640
2017-03-21T08:42:30.337Z,15824
2017-03-21T08:43:11.071Z,18752
2017-03-21T08:43:51.774Z,19136
2017-03-21T08:44:32.685Z,16448
2017-03-21T08:45:13.483Z,15756
2017-03-21T08:45:54.406Z,15376
2017-03-21T08:46:35.134Z,12844
2017-03-21T08:47:15.776Z,14336
2017-03-21T08:47:56.403Z,15620
2017-03-21T08:48:37.180Z,13608
2017-03-21T08:49:17.956Z,11512
2017-03-21T08:49:58.650Z,9316
2017-03-21T08:50:39.431Z,8264
2017-03-21T08:51:20.154Z,7580
2017-03-21T08:52:00.960Z,6904
2017-03-21T08:52:41.662Z,6016
2017-03-21T08:53:22.471Z,5652
2017-03-21T08:54:03.349Z,5212
2017-03-21T08:54:44.127Z,4828
2017-03-21T08:55:24.905Z,4792
2017-03-21T08:56:05.645Z,4576
2017-03-21T08:56:46.497Z,4492
2017-03-21T08:57:27.219Z,4692
2017-03-21T08:58:07.959Z,5160
2017-03-21T08:58:48.623Z,5644
2017-03-21T08:59:29.335Z,6288
2017-03-21T09:00:10.128Z,6576
2017-03-21T09:00:50.778Z,6616
2017-03-21T09:01:31.542Z,6696
2017-03-21T09:02:12.194Z,7696
2017-03-21T09:02:53.039Z,9744
2017-03-21T09:03:33.867Z,10292
2017-03-21T09:04:14.509Z,9904
2017-03-21T09:04:55.258Z,9292
2017-03-21T09:05:36.061Z,8312
2017-03-21T09:06:16.778Z,8560
2017-03-21T09:06:57.470Z,8156
2017-03-21T09:07:38.239Z,7324
2017-03-21T09:08:19.017Z,6916
2017-03-21T09:08:59.801Z,6708
2017-03-21T09:09:40.495Z,6380
2017-03-21T09:10:21.323Z,6260
2017-03-21T09:11:02.123Z,5224
2017-03-21T09:11:42.969Z,4816
2017-03-21T09:12:23.762Z,4192
2017-03-21T09:13:04.485Z,3784
2017-03-21T09:13:45.237Z,3780
2017-03-21T09:14:25.858Z,3680
2017-03-21T09:15:06.607Z,3404
2017-03-21T09:15:47.333Z,3272
2017-03-21T09:16:28.009Z,3240
2017-03-21T09:17:08.764Z,3496
2017-03-21T09:17:49.540Z,3904
2017-03-21T09:18:30.242Z,4420
2017-03-21T09:19:11.039Z,4292
2017-03-21T09:19:51.908Z,3712
2017-03-21T09:20:32.759Z,3324
2017-03-21T09:21:13.586Z,3512
2017-03-21T09:21:54.336Z,3948
2017-03-21T09:22:34.948Z,4212
2017-03-21T09:23:15.709Z,4324
2017-03-21T09:23:56.503Z,3952
2017-03-21T09:24:37.255Z,3992
2017-03-21T09:25:18.005Z,4372
2017-03-21T09:25:58.731Z,4412
2017-03-21T09:26:39.486Z,4212
2017-03-21T09:27:20.284Z,4004
2017-03-21T09:28:01.181Z,3568
2017-03-21T09:28:41.907Z,3076
2017-03-21T09:29:22.595Z,3304
2017-03-21T09:30:03.352Z,3832
2017-03-21T09:30:44.044Z,4252
2017-03-21T09:31:24.826Z,4032
2017-03-21T09:32:05.585Z,3428
2017-03-21T09:32:46.274Z,3572
2017-03-21T09:33:27.093Z,4176
2017-03-21T09:34:07.822Z,5244